createdAt,value
2022-08-24T00:00:00.080Z,79.36
2022-08-24T00:00:35.374Z,79.39
2022-08-24T00:01:13.579Z,79.31
2022-08-24T00:01:47.021Z,79.35
2022-08-24T00:02:20.419Z,79.39
2022-08-24T00:02:54.041Z,79.44
2022-08-24T00:03:31.761Z,79.59
2022-08-24T00:04:08.071Z,79.44
2022-08-24T00:04:41.481Z,79.49
2022-08-24T00:05:15.210Z,79.61
2022-08-24T00:05:48.733Z,79.53
2022-08-24T00:06:23.659Z,79.50
2022-08-24T00:06:57.526Z,79.54
2022-08-24T00:07:31.928Z,79.46
2022-08-24T00:08:05.325Z,79.62
2022-08-24T00:08:39.991Z,79.61
2022-08-24T00:09:13.355Z,79.53
2022-08-24T00:09:49.568Z,79.64
2022-08-24T00:10:25.512Z,79.45
2022-08-24T00:11:00.070Z,79.58
2022-08-24T00:11:33.144Z,79.44
2022-08-24T00:12:06.520Z,79.32
2022-08-24T00:12:41.227Z,79.41
2022-08-24T00:13:15.173Z,79.45
2022-08-24T00:13:48.743Z,79.51
2022-08-24T00:14:22.034Z,79.44
2022-08-24T00:14:56.597Z,79.37
2022-08-24T00:15:29.769Z,79.32
2022-08-24T00:16:03.418Z,79.29
2022-08-24T00:16:36.915Z,79.39
2022-08-24T00:17:10.310Z,79.35
2022-08-24T00:17:43.488Z,79.26
2022-08-24T00:18:16.992Z,79.37
2022-08-24T00:18:50.129Z,79.48
2022-08-24T00:19:23.983Z,79.44
2022-08-24T00:19:57.348Z,79.34
2022-08-24T00:20:30.957Z,79.28
2022-08-24T00:21:05.961Z,79.32
2022-08-24T00:21:39.259Z,79.42
2022-08-24T00:22:13.604Z,79.30
2022-08-24T00:22:46.810Z,79.22
2022-08-24T00:23:20.535Z,79.20
2022-08-24T00:23:54.738Z,79.26
2022-08-24T00:24:28.529Z,79.20
2022-08-24T00:25:02.247Z,79.18
2022-08-24T00:25:35.782Z,79.21
2022-08-24T00:26:10.663Z,79.17
2022-08-24T00:26:46.191Z,79.12
2022-08-24T00:27:19.230Z,79.06
2022-08-24T00:27:53.395Z,79.11
2022-08-24T00:28:26.641Z,79.09
2022-08-24T00:29:03.095Z,79.11
2022-08-24T00:29:39.695Z,79.12
2022-08-24T00:30:17.140Z,79.23
2022-08-24T00:30:50.683Z,79.24
2022-08-24T00:31:23.906Z,79.32
2022-08-24T00:31:57.189Z,79.34
2022-08-24T00:32:30.439Z,79.50
2022-08-24T00:33:04.142Z,79.42
2022-08-24T00:33:37.270Z,79.42
2022-08-24T00:34:10.747Z,79.50
2022-08-24T00:34:45.899Z,79.59
2022-08-24T00:35:32.331Z,79.50
2022-08-24T00:36:05.923Z,79.54
2022-08-24T00:36:39.288Z,79.45
2022-08-24T00:37:12.923Z,79.41
2022-08-24T00:37:48.088Z,79.43
2022-08-24T00:38:21.381Z,79.46
2022-08-24T00:38:54.661Z,79.42
2022-08-24T00:39:27.837Z,79.44
2022-08-24T00:40:01.149Z,79.38
2022-08-24T00:40:37.809Z,79.32
2022-08-24T00:41:10.857Z,79.28
2022-08-24T00:41:47.652Z,79.21
2022-08-24T00:42:20.760Z,79.29
2022-08-24T00:42:55.743Z,79.31
2022-08-24T00:43:29.377Z,79.28
2022-08-24T00:44:05.369Z,79.33
2022-08-24T00:44:38.580Z,79.28
2022-08-24T00:45:14.997Z,79.25
2022-08-24T00:46:19.038Z,79.33
2022-08-24T00:46:58.409Z,79.38
2022-08-24T00:47:39.203Z,79.26
2022-08-24T00:48:18.119Z,79.33
2022-08-24T00:48:58.559Z,79.27
2022-08-24T00:49:44.717Z,79.46
2022-08-24T00:50:33.781Z,79.35
2022-08-24T00:51:26.278Z,79.52
2022-08-24T00:52:05.081Z,79.53
2022-08-24T00:52:47.554Z,79.48
2022-08-24T00:53:27.283Z,79.40
2022-08-24T00:54:08.560Z,79.44
2022-08-24T00:54:48.950Z,79.49
2022-08-24T00:55:27.864Z,79.48
2022-08-24T00:56:12.265Z,79.33
2022-08-24T00:56:57.127Z,79.37
2022-08-24T00:57:36.528Z,79.35
2022-08-24T00:58:25.644Z,79.45
2022-08-24T00:59:05.388Z,79.36
2022-08-24T00:59:45.468Z,79.36
2022-08-24T01:00:23.392Z,79.36
2022-08-24T01:01:00.494Z,79.35
2022-08-24T01:01:36.305Z,79.19
2022-08-24T01:02:15.829Z,79.08
2022-08-24T01:02:53.592Z,78.95
2022-08-24T01:03:28.361Z,78.89
2022-08-24T01:04:02.624Z,78.72
2022-08-24T01:04:42.537Z,78.73
2022-08-24T01:05:18.190Z,78.69
2022-08-24T01:05:51.473Z,78.59
2022-08-24T01:06:25.037Z,78.48
2022-08-24T01:06:58.654Z,78.53
2022-08-24T01:07:33.839Z,78.35
2022-08-24T01:08:10.058Z,78.40
2022-08-24T01:08:44.738Z,78.39
2022-08-24T01:09:17.819Z,78.44
2022-08-24T01:09:54.712Z,78.62
2022-08-24T01:10:31.416Z,78.67
2022-08-24T01:11:13.886Z,78.78
2022-08-24T01:11:47.703Z,78.78
2022-08-24T01:12:22.607Z,78.97
2022-08-24T01:13:01.383Z,78.96
2022-08-24T01:13:35.634Z,79.15
2022-08-24T01:14:09.371Z,79.09
2022-08-24T01:14:43.750Z,79.28
2022-08-24T01:15:20.623Z,79.23
2022-08-24T01:15:58.406Z,79.33
2022-08-24T01:16:50.327Z,79.39
2022-08-24T01:17:43.056Z,79.31
2022-08-24T01:18:38.980Z,79.44
2022-08-24T01:19:37.183Z,79.41
2022-08-24T01:20:12.251Z,79.47
2022-08-24T01:20:49.797Z,79.58
2022-08-24T01:21:38.492Z,79.56
2022-08-24T01:22:49.304Z,79.50
2022-08-24T01:23:40.440Z,79.42
2022-08-24T01:24:14.412Z,79.50
2022-08-24T01:24:47.904Z,79.44
2022-08-24T01:25:23.805Z,79.50
2022-08-24T01:25:57.239Z,79.53
2022-08-24T01:26:50.999Z,79.43
2022-08-24T01:27:24.907Z,79.40
2022-08-24T01:28:07.107Z,79.42
2022-08-24T01:28:42.738Z,79.47
2022-08-24T01:29:28.838Z,79.40
2022-08-24T01:30:09.160Z,79.50
2022-08-24T01:30:45.661Z,79.43
2022-08-24T01:31:22.483Z,79.37
2022-08-24T01:31:56.648Z,79.36
2022-08-24T01:32:30.271Z,79.41
2022-08-24T01:33:07.021Z,79.48
2022-08-24T01:33:40.466Z,79.46
2022-08-24T01:34:13.595Z,79.48
2022-08-24T01:34:46.826Z,79.48
2022-08-24T01:35:20.057Z,79.47
2022-08-24T01:36:03.935Z,79.51
2022-08-24T01:36:46.425Z,79.52
2022-08-24T01:37:19.574Z,79.55
2022-08-24T01:37:56.147Z,79.69
2022-08-24T01:38:29.348Z,79.62
2022-08-24T01:39:10.669Z,79.80
2022-08-24T01:39:46.810Z,79.71
2022-08-24T01:40:20.927Z,79.72
2022-08-24T01:41:00.191Z,79.66
2022-08-24T01:41:33.358Z,79.61
2022-08-24T01:42:07.586Z,79.80
2022-08-24T01:42:40.930Z,79.79
2022-08-24T01:43:15.368Z,79.81
2022-08-24T01:43:48.437Z,79.81
2022-08-24T01:44:23.135Z,79.84
2022-08-24T01:44:56.412Z,79.91
2022-08-24T01:45:29.866Z,79.94
2022-08-24T01:46:03.264Z,79.81
2022-08-24T01:46:36.711Z,79.94
2022-08-24T01:47:12.837Z,79.97
2022-08-24T01:47:46.385Z,80.04
2022-08-24T01:48:20.176Z,80.07
2022-08-24T01:48:58.383Z,80.09
2022-08-24T01:49:34.579Z,80.06
2022-08-24T01:50:08.494Z,80.01
2022-08-24T01:50:41.699Z,79.97
2022-08-24T01:51:15.073Z,80.09
2022-08-24T01:51:48.383Z,80.10
2022-08-24T01:52:24.781Z,80.11
2022-08-24T01:53:14.473Z,80.01
2022-08-24T01:53:47.913Z,80.02
2022-08-24T01:54:21.280Z,80.02
2022-08-24T01:54:54.975Z,79.96
2022-08-24T01:55:28.895Z,80.00
2022-08-24T01:56:02.193Z,79.96
2022-08-24T01:56:36.864Z,80.00
2022-08-24T01:57:16.318Z,79.87
2022-08-24T01:57:50.560Z,79.80
2022-08-24T01:58:24.900Z,79.95
2022-08-24T01:58:58.833Z,79.83
2022-08-24T01:59:32.350Z,79.86
2022-08-24T02:00:10.516Z,79.84
2022-08-24T02:00:45.068Z,79.84
2022-08-24T02:01:19.443Z,79.80
2022-08-24T02:02:01.897Z,79.83
2022-08-24T02:02:35.388Z,79.75
2022-08-24T02:03:08.779Z,79.83
2022-08-24T02:03:42.037Z,79.89
2022-08-24T02:04:18.836Z,79.75
2022-08-24T02:04:52.266Z,79.67
2022-08-24T02:05:26.154Z,79.71
2022-08-24T02:05:59.816Z,79.63
2022-08-24T02:06:33.611Z,79.56
2022-08-24T02:07:10.443Z,79.43
2022-08-24T02:07:44.455Z,79.36
2022-08-24T02:08:18.121Z,79.27
2022-08-24T02:08:51.259Z,79.18
2022-08-24T02:09:24.765Z,79.17
2022-08-24T02:10:07.197Z,79.07
2022-08-24T02:10:40.810Z,78.96
2022-08-24T02:11:22.443Z,79.00
2022-08-24T02:11:55.730Z,79.00
2022-08-24T02:12:28.800Z,79.08
2022-08-24T02:13:04.126Z,79.11
2022-08-24T02:13:39.809Z,79.10
2022-08-24T02:14:14.610Z,79.01
2022-08-24T02:14:48.007Z,78.98
2022-08-24T02:15:21.172Z,78.83
2022-08-24T02:15:54.366Z,78.74
2022-08-24T02:16:27.910Z,78.61
2022-08-24T02:17:01.418Z,78.46
2022-08-24T02:17:35.915Z,78.51
2022-08-24T02:18:15.220Z,78.31
2022-08-24T02:18:49.297Z,78.20
2022-08-24T02:19:22.559Z,78.25
2022-08-24T02:19:55.713Z,78.10
2022-08-24T02:20:29.647Z,78.11
2022-08-24T02:21:03.077Z,78.09
2022-08-24T02:21:36.484Z,78.01
2022-08-24T02:22:10.012Z,77.99
2022-08-24T02:22:43.065Z,77.99
2022-08-24T02:23:16.533Z,77.98
2022-08-24T02:23:49.899Z,78.01
2022-08-24T02:24:23.801Z,77.99
2022-08-24T02:24:57.894Z,77.94
2022-08-24T02:25:31.276Z,77.86
2022-08-24T02:26:06.746Z,77.96
2022-08-24T02:26:40.963Z,77.97
2022-08-24T02:27:16.729Z,78.00
2022-08-24T02:27:50.377Z,78.03
2022-08-24T02:28:23.617Z,78.04
2022-08-24T02:28:56.840Z,78.09
2022-08-24T02:29:32.429Z,78.13
2022-08-24T02:30:06.747Z,78.07
2022-08-24T02:30:40.518Z,78.23
2022-08-24T02:31:14.945Z,78.07
2022-08-24T02:31:48.259Z,78.16
2022-08-24T02:32:21.670Z,78.10
2022-08-24T02:32:54.683Z,78.10
2022-08-24T02:33:28.145Z,78.13
2022-08-24T02:34:01.436Z,78.14
2022-08-24T02:34:34.963Z,78.02
2022-08-24T02:35:09.106Z,78.07
2022-08-24T02:35:42.620Z,78.05
2022-08-24T02:36:25.978Z,77.97
2022-08-24T02:37:00.288Z,78.06
2022-08-24T02:37:33.427Z,77.92
2022-08-24T02:38:10.402Z,77.98
2022-08-24T02:38:43.824Z,77.75
2022-08-24T02:39:16.959Z,77.83
2022-08-24T02:39:50.061Z,77.78
2022-08-24T02:40:24.695Z,77.88
2022-08-24T02:40:58.312Z,77.92
2022-08-24T02:41:31.521Z,77.78
2022-08-24T02:42:05.317Z,77.78
2022-08-24T02:42:38.923Z,77.85
2022-08-24T02:43:11.994Z,77.89
2022-08-24T02:43:45.457Z,77.82
2022-08-24T02:44:19.295Z,77.83
2022-08-24T02:44:52.866Z,77.93
2022-08-24T02:45:27.633Z,77.85
2022-08-24T02:46:00.892Z,77.78
2022-08-24T02:46:34.402Z,77.87
2022-08-24T02:47:07.736Z,77.89
2022-08-24T02:47:40.895Z,77.85
2022-08-24T02:48:14.370Z,78.00
2022-08-24T02:48:47.691Z,77.99
2022-08-24T02:49:41.178Z,77.91
2022-08-24T02:50:16.201Z,77.90
2022-08-24T02:50:52.666Z,77.90
2022-08-24T02:51:29.671Z,77.91
2022-08-24T02:52:03.527Z,78.03
2022-08-24T02:52:39.758Z,78.02
2022-08-24T02:53:15.161Z,78.04
2022-08-24T02:53:48.758Z,78.07
2022-08-24T02:54:22.107Z,78.01
2022-08-24T02:54:55.323Z,78.06
2022-08-24T02:55:28.504Z,78.10
2022-08-24T02:56:01.605Z,78.19
2022-08-24T02:56:35.947Z,78.08
2022-08-24T02:57:09.132Z,78.07
2022-08-24T02:57:42.522Z,78.03
2022-08-24T02:58:17.764Z,78.02
2022-08-24T02:58:53.190Z,77.99
2022-08-24T02:59:27.797Z,78.02
2022-08-24T03:00:01.345Z,78.10
2022-08-24T03:00:36.736Z,78.08
2022-08-24T03:01:17.492Z,78.07
2022-08-24T03:01:51.673Z,78.17
2022-08-24T03:02:25.062Z,78.21
2022-08-24T03:02:59.126Z,78.13
2022-08-24T03:03:33.263Z,78.21
2022-08-24T03:04:06.493Z,78.11
2022-08-24T03:04:39.628Z,78.14
2022-08-24T03:05:12.888Z,78.10
2022-08-24T03:05:46.207Z,78.17
2022-08-24T03:06:20.398Z,78.16
2022-08-24T03:06:53.631Z,78.10
2022-08-24T03:07:27.092Z,78.21
2022-08-24T03:08:00.651Z,78.19
2022-08-24T03:08:35.690Z,78.08
2022-08-24T03:09:09.180Z,78.04
2022-08-24T03:09:42.254Z,78.04
2022-08-24T03:10:16.208Z,78.06
2022-08-24T03:10:49.988Z,78.02
2022-08-24T03:11:27.400Z,77.97
2022-08-24T03:12:01.587Z,78.01
2022-08-24T03:12:35.038Z,77.88
2022-08-24T03:13:08.260Z,78.06
2022-08-24T03:13:41.823Z,77.97
2022-08-24T03:14:15.040Z,77.95
2022-08-24T03:14:48.259Z,78.03
2022-08-24T03:15:22.806Z,77.78
2022-08-24T03:15:56.011Z,77.85
2022-08-24T03:16:29.792Z,77.88
2022-08-24T03:17:03.211Z,77.92
2022-08-24T03:17:37.276Z,77.88
2022-08-24T03:18:13.734Z,77.95
2022-08-24T03:18:48.322Z,77.79
2022-08-24T03:19:22.609Z,77.78
2022-08-24T03:19:55.754Z,77.75
2022-08-24T03:20:29.012Z,77.85
2022-08-24T03:21:03.618Z,77.78
2022-08-24T03:21:37.130Z,77.80
2022-08-24T03:22:10.276Z,77.93
2022-08-24T03:22:43.521Z,77.90
2022-08-24T03:23:16.799Z,77.79
2022-08-24T03:23:49.959Z,77.89
2022-08-24T03:24:23.608Z,78.03
2022-08-24T03:24:56.930Z,77.90
2022-08-24T03:25:30.225Z,77.80
2022-08-24T03:26:03.768Z,77.88
2022-08-24T03:26:37.085Z,77.78
2022-08-24T03:27:10.227Z,77.95
2022-08-24T03:27:43.715Z,77.84
2022-08-24T03:28:17.220Z,77.88
2022-08-24T03:28:52.027Z,77.81
2022-08-24T03:29:25.142Z,77.89
2022-08-24T03:29:58.290Z,77.94
2022-08-24T03:30:31.576Z,77.76
2022-08-24T03:31:05.692Z,77.95
2022-08-24T03:31:39.407Z,77.81
2022-08-24T03:32:12.726Z,77.96
2022-08-24T03:32:46.472Z,77.97
2022-08-24T03:33:20.302Z,78.00
2022-08-24T03:33:53.465Z,77.90
2022-08-24T03:34:26.696Z,77.97
2022-08-24T03:34:59.936Z,77.97
2022-08-24T03:35:34.161Z,77.96
2022-08-24T03:36:11.256Z,77.95
2022-08-24T03:36:46.950Z,78.03
2022-08-24T03:37:20.945Z,78.03
2022-08-24T03:37:55.060Z,77.98
2022-08-24T03:38:28.599Z,78.07
2022-08-24T03:39:01.715Z,77.92
2022-08-24T03:39:35.143Z,78.15
2022-08-24T03:40:22.550Z,78.12
2022-08-24T03:40:57.810Z,78.03
2022-08-24T03:41:31.141Z,78.11
2022-08-24T03:42:08.757Z,78.04
2022-08-24T03:42:42.107Z,78.12
2022-08-24T03:43:35.112Z,78.03
2022-08-24T03:44:08.301Z,78.05
2022-08-24T03:44:41.823Z,78.15
2022-08-24T03:45:14.941Z,78.08
2022-08-24T03:45:48.324Z,78.26
2022-08-24T03:46:27.542Z,78.16
2022-08-24T03:47:00.758Z,78.15
2022-08-24T03:47:33.777Z,78.23
2022-08-24T03:48:08.479Z,78.21
2022-08-24T03:48:42.663Z,78.13
2022-08-24T03:49:15.793Z,78.18
2022-08-24T03:49:49.581Z,78.16
2022-08-24T03:50:24.009Z,78.13
2022-08-24T03:50:57.511Z,78.26
2022-08-24T03:51:30.967Z,78.19
2022-08-24T03:52:05.972Z,78.18
2022-08-24T03:52:39.501Z,78.25
2022-08-24T03:53:12.731Z,78.22
2022-08-24T03:53:45.940Z,78.37
2022-08-24T03:54:20.086Z,78.38
2022-08-24T03:54:53.737Z,78.25
2022-08-24T03:55:26.936Z,78.26
2022-08-24T03:56:00.362Z,78.20
2022-08-24T03:56:41.934Z,78.12
2022-08-24T03:57:15.614Z,78.21
2022-08-24T03:57:50.000Z,78.11
2022-08-24T03:58:23.140Z,78.24
2022-08-24T03:58:57.566Z,78.29
2022-08-24T03:59:31.899Z,78.18
2022-08-24T04:00:08.048Z,78.27
2022-08-24T04:00:43.119Z,78.24
2022-08-24T04:01:17.941Z,78.32
2022-08-24T04:01:51.700Z,78.34
2022-08-24T04:02:25.430Z,78.20
2022-08-24T04:02:59.866Z,78.39
2022-08-24T04:03:40.815Z,78.36
2022-08-24T04:04:13.996Z,78.44
2022-08-24T04:04:47.140Z,78.35
2022-08-24T04:05:20.203Z,78.51
2022-08-24T04:05:53.262Z,78.34
2022-08-24T04:06:28.282Z,78.29
2022-08-24T04:07:01.410Z,78.31
2022-08-24T04:07:34.690Z,78.43
2022-08-24T04:08:08.568Z,78.46
2022-08-24T04:08:42.956Z,78.43
2022-08-24T04:09:17.078Z,78.53
2022-08-24T04:09:50.286Z,78.53
2022-08-24T04:10:23.437Z,78.52
2022-08-24T04:10:56.672Z,78.61
2022-08-24T04:11:30.301Z,78.64
2022-08-24T04:12:03.984Z,78.48
2022-08-24T04:12:37.057Z,78.49
2022-08-24T04:13:10.181Z,78.53
2022-08-24T04:13:43.820Z,78.43
2022-08-24T04:14:26.521Z,78.45
2022-08-24T04:15:00.885Z,78.58
2022-08-24T04:15:40.577Z,78.55
2022-08-24T04:16:17.278Z,78.57
2022-08-24T04:16:53.457Z,78.64
2022-08-24T04:17:31.143Z,78.68
2022-08-24T04:18:04.408Z,78.69
2022-08-24T04:18:37.857Z,78.73
2022-08-24T04:19:11.830Z,78.72
2022-08-24T04:19:58.031Z,78.76
2022-08-24T04:20:31.615Z,78.81
2022-08-24T04:21:05.216Z,78.70
2022-08-24T04:21:38.389Z,78.85
2022-08-24T04:22:11.571Z,78.86
2022-08-24T04:22:44.693Z,78.78
2022-08-24T04:23:19.304Z,78.97
2022-08-24T04:23:53.203Z,78.91
2022-08-24T04:24:27.495Z,79.04
2022-08-24T04:25:00.996Z,78.84
2022-08-24T04:25:48.570Z,78.84
2022-08-24T04:26:34.758Z,78.80
2022-08-24T04:27:17.612Z,78.92
2022-08-24T04:27:51.057Z,78.99
2022-08-24T04:28:24.275Z,79.07
2022-08-24T04:28:58.978Z,79.10
2022-08-24T04:29:32.322Z,79.07
2022-08-24T04:30:06.848Z,79.17
2022-08-24T04:30:45.416Z,79.02
2022-08-24T04:31:19.379Z,79.09
2022-08-24T04:31:52.758Z,79.14
2022-08-24T04:32:26.436Z,79.06
2022-08-24T04:32:59.812Z,79.09
2022-08-24T04:33:33.563Z,79.10
2022-08-24T04:34:08.186Z,79.05
2022-08-24T04:34:42.968Z,79.14
2022-08-24T04:35:16.440Z,79.15
2022-08-24T04:35:50.566Z,79.09
2022-08-24T04:36:24.236Z,79.16
2022-08-24T04:36:57.360Z,79.15
2022-08-24T04:37:30.508Z,79.15
2022-08-24T04:38:04.213Z,79.09
2022-08-24T04:38:38.362Z,79.10
2022-08-24T04:39:12.660Z,79.11
2022-08-24T04:39:45.952Z,79.25
2022-08-24T04:40:19.566Z,79.08
2022-08-24T04:40:54.142Z,79.28
2022-08-24T04:41:31.263Z,79.12
2022-08-24T04:42:06.449Z,79.26
2022-08-24T04:42:40.147Z,79.21
2022-08-24T04:43:19.477Z,79.30
2022-08-24T04:43:53.429Z,79.29
2022-08-24T04:44:30.321Z,79.29
2022-08-24T04:45:05.310Z,79.13
2022-08-24T04:45:40.617Z,79.20
2022-08-24T04:46:17.122Z,79.21
2022-08-24T04:46:50.394Z,79.18
2022-08-24T04:47:24.612Z,79.12
2022-08-24T04:47:57.847Z,79.08
2022-08-24T04:48:31.558Z,79.16
2022-08-24T04:49:04.678Z,79.12
2022-08-24T04:49:39.360Z,79.08
2022-08-24T04:50:13.101Z,79.17
2022-08-24T04:50:47.349Z,79.00
2022-08-24T04:51:21.655Z,79.08
2022-08-24T04:51:54.901Z,79.27
2022-08-24T04:52:29.392Z,79.10
2022-08-24T04:53:04.613Z,79.22
2022-08-24T04:53:38.917Z,79.11
2022-08-24T04:54:12.272Z,79.15
2022-08-24T04:54:45.632Z,79.00
2022-08-24T04:55:19.260Z,79.08
2022-08-24T04:55:52.513Z,79.13
2022-08-24T04:56:25.938Z,79.04
2022-08-24T04:56:59.130Z,79.12
2022-08-24T04:57:34.323Z,79.12
2022-08-24T04:58:07.701Z,79.12
2022-08-24T04:58:41.968Z,79.00
2022-08-24T04:59:15.296Z,79.22
2022-08-24T04:59:48.738Z,79.02
2022-08-24T05:00:22.052Z,78.96
2022-08-24T05:00:55.264Z,78.97
2022-08-24T05:01:30.797Z,79.04
2022-08-24T05:02:04.202Z,79.03
2022-08-24T05:02:44.732Z,78.97
2022-08-24T05:03:19.321Z,79.09
2022-08-24T05:03:55.401Z,79.04
2022-08-24T05:04:28.729Z,79.09
2022-08-24T05:05:04.633Z,78.89
2022-08-24T05:05:46.013Z,78.88
2022-08-24T05:06:22.625Z,78.78
2022-08-24T05:06:55.799Z,78.78
2022-08-24T05:07:30.301Z,78.80
2022-08-24T05:08:03.606Z,78.76
2022-08-24T05:08:38.259Z,78.72
2022-08-24T05:09:11.611Z,78.72
2022-08-24T05:09:45.773Z,78.85
2022-08-24T05:10:19.353Z,78.59
2022-08-24T05:10:52.517Z,78.76
2022-08-24T05:11:27.050Z,78.70
2022-08-24T05:12:00.342Z,78.72
2022-08-24T05:12:33.711Z,78.78
2022-08-24T05:13:07.749Z,78.57
2022-08-24T05:13:41.819Z,78.70
2022-08-24T05:14:14.939Z,78.66
2022-08-24T05:14:48.321Z,78.56
2022-08-24T05:15:21.606Z,78.54
2022-08-24T05:15:55.026Z,78.49
2022-08-24T05:16:28.349Z,78.55
2022-08-24T05:17:04.833Z,78.45
2022-08-24T05:17:49.927Z,78.66
2022-08-24T05:18:24.731Z,78.55
2022-08-24T05:18:58.598Z,78.60
2022-08-24T05:19:31.921Z,78.42
2022-08-24T05:20:06.387Z,78.45
2022-08-24T05:20:45.648Z,78.55
2022-08-24T05:21:22.003Z,78.60
2022-08-24T05:21:55.485Z,78.35
2022-08-24T05:22:28.741Z,78.46
2022-08-24T05:23:04.490Z,78.33
2022-08-24T05:23:39.352Z,78.42
2022-08-24T05:24:16.806Z,78.42
2022-08-24T05:24:50.456Z,78.50
2022-08-24T05:25:23.747Z,78.38
2022-08-24T05:26:16.781Z,78.49
2022-08-24T05:26:51.685Z,78.22
2022-08-24T05:27:26.288Z,78.35
2022-08-24T05:28:00.966Z,78.48
2022-08-24T05:28:35.792Z,78.32
2022-08-24T05:29:08.997Z,78.35
2022-08-24T05:29:42.068Z,78.37
2022-08-24T05:30:15.623Z,78.15
2022-08-24T05:30:51.122Z,78.08
2022-08-24T05:31:28.051Z,78.25
2022-08-24T05:32:02.340Z,78.24
2022-08-24T05:32:38.705Z,78.30
2022-08-24T05:33:11.898Z,78.28
2022-08-24T05:33:45.878Z,78.18
2022-08-24T05:34:19.775Z,78.18
2022-08-24T05:34:53.072Z,78.11
2022-08-24T05:35:26.670Z,78.16
2022-08-24T05:36:00.114Z,78.11
2022-08-24T05:36:38.713Z,78.19
2022-08-24T05:37:12.309Z,78.10
2022-08-24T05:37:45.818Z,78.25
2022-08-24T05:38:19.709Z,78.18
2022-08-24T05:38:55.821Z,78.23
2022-08-24T05:39:31.282Z,78.16
2022-08-24T05:40:07.289Z,77.99
2022-08-24T05:40:41.607Z,78.18
2022-08-24T05:41:16.532Z,78.02
2022-08-24T05:41:49.999Z,78.09
2022-08-24T05:42:23.418Z,77.97
2022-08-24T05:42:56.775Z,78.00
2022-08-24T05:43:30.461Z,77.96
2022-08-24T05:44:06.427Z,77.95
2022-08-24T05:44:39.999Z,77.81
2022-08-24T05:45:13.296Z,77.80
2022-08-24T05:45:46.526Z,77.80
2022-08-24T05:46:19.901Z,77.68
2022-08-24T05:46:56.072Z,77.70
2022-08-24T05:47:29.351Z,77.66
2022-08-24T05:48:03.898Z,77.75
2022-08-24T05:48:38.444Z,77.65
2022-08-24T05:49:12.264Z,77.62
2022-08-24T05:49:46.149Z,77.65
2022-08-24T05:50:19.283Z,77.56
2022-08-24T05:50:57.659Z,77.56
2022-08-24T05:51:31.744Z,77.53
2022-08-24T05:52:05.021Z,77.48
2022-08-24T05:52:38.491Z,77.49
2022-08-24T05:53:13.601Z,77.57
2022-08-24T05:53:46.747Z,77.58
2022-08-24T05:54:20.478Z,77.65
2022-08-24T05:54:56.921Z,77.70
2022-08-24T05:55:31.232Z,77.67
2022-08-24T05:56:14.484Z,77.62
2022-08-24T05:56:48.260Z,77.54
2022-08-24T05:57:23.184Z,77.46
2022-08-24T05:57:57.003Z,77.57
2022-08-24T05:58:31.017Z,77.45
2022-08-24T05:59:05.207Z,77.31
2022-08-24T05:59:38.777Z,77.35
2022-08-24T06:00:14.816Z,77.28
2022-08-24T06:00:50.011Z,77.31
2022-08-24T06:01:26.024Z,77.19
2022-08-24T06:01:59.435Z,77.19
2022-08-24T06:02:33.101Z,77.08
2022-08-24T06:03:06.886Z,77.02
2022-08-24T06:03:41.459Z,76.94
2022-08-24T06:04:15.152Z,76.85
2022-08-24T06:04:48.574Z,76.80
2022-08-24T06:05:21.896Z,76.76
2022-08-24T06:05:55.420Z,76.65
2022-08-24T06:06:29.189Z,76.57
2022-08-24T06:07:02.461Z,76.54
2022-08-24T06:07:36.390Z,76.55
2022-08-24T06:08:09.875Z,76.41
2022-08-24T06:08:47.361Z,76.56
2022-08-24T06:09:21.969Z,76.55
2022-08-24T06:09:55.101Z,76.48
2022-08-24T06:10:37.001Z,76.51
2022-08-24T06:11:11.008Z,76.61
2022-08-24T06:11:47.774Z,76.72
2022-08-24T06:12:21.010Z,76.77
2022-08-24T06:12:54.242Z,76.66
2022-08-24T06:13:28.066Z,76.66
2022-08-24T06:14:07.803Z,76.63
2022-08-24T06:14:45.279Z,76.63
2022-08-24T06:15:18.439Z,76.60
2022-08-24T06:16:27.913Z,76.43
2022-08-24T06:17:02.344Z,76.47
2022-08-24T06:17:35.836Z,76.55
2022-08-24T06:18:09.906Z,76.47
2022-08-24T06:18:43.187Z,76.56
2022-08-24T06:19:19.623Z,76.51
2022-08-24T06:19:53.323Z,76.52
2022-08-24T06:20:26.686Z,76.57
2022-08-24T06:21:05.017Z,76.53
2022-08-24T06:21:38.232Z,76.32
2022-08-24T06:22:11.549Z,76.20
2022-08-24T06:22:44.805Z,76.11
2022-08-24T06:23:17.893Z,76.10
2022-08-24T06:23:51.735Z,76.20
2022-08-24T06:24:46.419Z,76.14
2022-08-24T06:25:38.461Z,76.20
2022-08-24T06:26:32.586Z,76.18
2022-08-24T06:27:25.741Z,76.24
2022-08-24T06:27:59.063Z,76.33
2022-08-24T06:28:33.949Z,76.27
2022-08-24T06:29:08.488Z,76.19
2022-08-24T06:29:42.243Z,76.18
2022-08-24T06:30:15.658Z,76.13
2022-08-24T06:30:48.947Z,76.08
2022-08-24T06:31:23.231Z,75.97
2022-08-24T06:31:58.095Z,75.79
2022-08-24T06:32:33.195Z,75.67
2022-08-24T06:33:07.024Z,75.61
2022-08-24T06:33:40.632Z,75.58
2022-08-24T06:34:16.522Z,75.50
2022-08-24T06:34:50.719Z,75.39
2022-08-24T06:35:24.019Z,75.33
2022-08-24T06:35:57.273Z,75.29
2022-08-24T06:36:30.534Z,75.31
2022-08-24T06:37:03.796Z,75.22
2022-08-24T06:37:37.560Z,75.20
2022-08-24T06:38:11.371Z,75.17
2022-08-24T06:38:45.711Z,75.09
2022-08-24T06:39:20.358Z,75.12
2022-08-24T06:39:58.462Z,75.04
2022-08-24T06:40:31.940Z,75.00
2022-08-24T06:41:05.319Z,74.89
2022-08-24T06:41:41.525Z,74.89
2022-08-24T06:42:14.705Z,74.83
2022-08-24T06:42:48.788Z,74.77
2022-08-24T06:43:22.402Z,74.77
2022-08-24T06:43:55.835Z,74.72
2022-08-24T06:44:29.249Z,74.68
2022-08-24T06:45:03.461Z,74.59
2022-08-24T06:45:36.863Z,74.39
2022-08-24T06:46:10.285Z,74.35
2022-08-24T06:46:44.047Z,74.25
2022-08-24T06:47:17.434Z,74.06
2022-08-24T06:47:50.556Z,74.07
2022-08-24T06:48:24.517Z,73.97
2022-08-24T06:48:57.654Z,73.96
2022-08-24T06:49:30.820Z,73.81
2022-08-24T06:50:04.683Z,73.69
2022-08-24T06:50:39.994Z,73.68
2022-08-24T06:51:17.322Z,73.62
2022-08-24T06:51:52.197Z,73.48
2022-08-24T06:52:25.433Z,73.54
2022-08-24T06:53:00.823Z,73.49
2022-08-24T06:53:33.977Z,73.49
2022-08-24T06:54:08.645Z,73.55
2022-08-24T06:54:41.844Z,73.56
2022-08-24T06:55:15.100Z,73.53
2022-08-24T06:55:58.682Z,73.61
2022-08-24T06:56:32.164Z,73.57
2022-08-24T06:57:06.925Z,73.57
2022-08-24T06:57:40.140Z,73.51
2022-08-24T06:58:13.511Z,73.44
2022-08-24T06:58:46.735Z,73.45
2022-08-24T06:59:21.041Z,73.30
2022-08-24T06:59:54.903Z,73.20
2022-08-24T07:00:28.275Z,73.24
2022-08-24T07:01:23.367Z,73.25
2022-08-24T07:01:58.179Z,73.14
2022-08-24T07:02:31.712Z,72.94
2022-08-24T07:03:05.096Z,72.86
2022-08-24T07:03:39.590Z,72.82
2022-08-24T07:04:12.945Z,72.80
2022-08-24T07:04:47.287Z,72.86
2022-08-24T07:05:20.449Z,72.89
2022-08-24T07:05:57.687Z,72.88
2022-08-24T07:06:31.081Z,72.79
2022-08-24T07:07:04.615Z,72.82
2022-08-24T07:07:37.925Z,72.76
2022-08-24T07:08:11.232Z,72.80
2022-08-24T07:08:44.564Z,72.62
2022-08-24T07:09:18.982Z,72.52
2022-08-24T07:09:52.152Z,72.42
2022-08-24T07:10:25.771Z,72.46
2022-08-24T07:11:02.977Z,72.35
2022-08-24T07:11:36.342Z,72.28
2022-08-24T07:12:09.676Z,72.23
2022-08-24T07:12:42.936Z,72.18
2022-08-24T07:13:20.329Z,72.19
2022-08-24T07:13:53.610Z,72.03
2022-08-24T07:14:26.854Z,71.76
2022-08-24T07:15:00.103Z,71.81
2022-08-24T07:15:33.416Z,71.71
2022-08-24T07:16:07.225Z,71.67
2022-08-24T07:16:40.487Z,71.57
2022-08-24T07:17:13.948Z,71.47
2022-08-24T07:17:47.134Z,71.40
2022-08-24T07:18:21.409Z,71.30
2022-08-24T07:18:55.059Z,71.11
2022-08-24T07:19:28.497Z,71.05
2022-08-24T07:20:01.955Z,71.06
2022-08-24T07:20:35.231Z,70.98
2022-08-24T07:21:08.616Z,70.85
2022-08-24T07:21:42.816Z,70.77
2022-08-24T07:22:15.990Z,70.80
2022-08-24T07:22:49.195Z,70.78
2022-08-24T07:23:22.924Z,70.85
2022-08-24T07:24:14.959Z,70.77
2022-08-24T07:24:48.373Z,70.90
2022-08-24T07:25:21.641Z,70.91
2022-08-24T07:25:57.042Z,70.97
2022-08-24T07:26:32.228Z,70.97
2022-08-24T07:27:05.668Z,71.01
2022-08-24T07:27:39.957Z,71.07
2022-08-24T07:28:14.367Z,71.04
2022-08-24T07:28:48.432Z,71.04
2022-08-24T07:29:48.793Z,70.95
2022-08-24T07:30:26.990Z,70.87
2022-08-24T07:31:01.272Z,70.83
2022-08-24T07:31:37.024Z,70.75
2022-08-24T07:32:10.455Z,70.68
2022-08-24T07:32:43.569Z,70.63
2022-08-24T07:33:16.891Z,70.42
2022-08-24T07:33:50.045Z,70.32
2022-08-24T07:34:23.375Z,70.25